Ocean Grove, NJ (07756)

7:10 PM EDT on June 23, 2017 (GMT -0400)
Bradley Beach | | Change Station
Active Advisory: Severe Thunderstorm Watch

Elev 89 ft 40.20 °N, 74.01 °W | Updated 8 seconds ago

Partly Cloudy
Partly Cloudy
76.1 °F
Feels Like 78 °F
N
2.7
Wind Variable Wind from SSW
Gusts 4.9 mph

Today
High -- | Low -- °F
--% Chance of Precip.
Yesterday
High -- | Low -- °F
Precip. -- in
Pressure 29.68 in
Visibility 10.0 miles
Clouds Clear
Heat Index 78 °F
Dew Point 53 °F
Humidity 45%
Rainfall 0.00 in
Snow Depth Not available.
5:27 AM 8:29 PM
Waning Crescent, 0% visible
METAR KBLM 232256Z AUTO 17005KT 10SM CLR 28/23 A2967 RMK AO2 SLP049 T02830233
Pressure 29.68 in
Visibility 10.0 miles
Clouds Clear
Heat Index 78 °F
Dew Point 53 °F
Humidity 45%
Rainfall 0.00 in
Snow Depth Not available.
5:27 AM 8:29 PM
Waning Crescent, 0% visible
METAR KBLM 232256Z AUTO 17005KT 10SM CLR 28/23 A2967 RMK AO2 SLP049 T02830233

Get Your Daily Forecast Email!

Thanks for signing up!

Be on the lookout for a verification email in your inbox.

You'll start receiving severe weather alerts in your inbox..

×

10-Day Weather Forecast

Almanac

Astronomy

Jun. 23, 2017 Rise Set
Actual Time
Civil Twilight
Nautical Twilight
Astronomical Twilight
Moon
Length of Visible Light
Length of Day
Tomorrow will be .
, % of the Moon is Illuminated

Today's Extremes

State Highs State Lows

Community

WunderPhotos

Category 6

Welcome to Category 6. This is the collective home for Weather Underground's featured writeups by Dr. Jeff Masters (right), Bob Henson (left), Chris Burt, and other regular contributors.

Nearby

Air Quality

  Air Quality AQ Index Pollutant
Not available.

Snow Depth

Station Depth Elevation

Earthquake Activity

City Distance Mag. Time & Date
Minimum magnitude displayed is 2.5.

Coastal Water Temperatures

Place Temperature

Stations

Nearby Weather Stations

Station Location Temp. Windchill Dew Point Humidity Wind Precip. Elev Updated Type
                   

Watches & Warnings

Severe Thunderstorm Watch
Issued: 7:03 PM EDT Jun. 23, 2017 – National Weather Service

Severe Thunderstorm Watch 369 remains in effect until 1000 PM EDT
for the following locations


NJ
. New Jersey counties included are

Bergen Essex Hudson
Hunterdon Mercer Middlesex
Monmouth Morris Passaic
Somerset Sussex Union
Warren